Strathmore, New Jersey
Current Conditions -  °F | °C
As of 6:35 PM on Friday 19 Dec 2014 (Local Time) from KLDJ Reporting Station
Overcast Overcast  
Wind Chill: 29°   Ceiling: 3100
Heat Index: 37°   Visibility: 10mi
Dew Point: 25°   Wind: 13mph
Humidity: 61%   Direction: 360°N
Pressure: 30.17"   Gusts: 17mph
Location:  40.4118°N, 74.2499°W
Report Text: KLDJ 192335Z AUTO 36011G15KT 10SM OVC031 03/M04 A3017 RMK AO2 T00291040
Loading
Personal Weather Stations






























Interactive Weather Map New forecast layout! Learn more

10-Day Weather Forecast

Advertisements
Track Severe Weather on mobile